| time (UTC) | temp F | wind direction | speed MPH | gust MPH | rain 1hr in | rain 24hr in | rain mn in | humidity % | barometer mb |
| 20260906064546 | 74 | 0 | 0.0 | 0.0 | 0.00 | 0.00 | 0.00 | 54 | 1024.4 |
| 20260906063057 | 73 | 0 | 0.0 | 0.0 | 0.00 | 0.00 | 0.00 | 55 | 1024.3 |
| 20260906061554 | 70 | 0 | 0.0 | 0.0 | 0.00 | 0.00 | 0.00 | 61 | 1024.3 |
| 20260906060053 | 69 | 0 | 0.0 | 0.0 | 0.00 | 0.00 | 0.00 | 61 | 1024.1 |
| 20260906054608 | 64 | 0 | 0.0 | 0.0 | 0.00 | 0.00 | 0.00 | 70 | 1024.0 |
| 20260906053054 | 61 | 0 | 0.0 | 0.0 | 0.00 | 0.00 | 0.00 | 73 | 1023.9 |
| 20260906051603 | 60 | 0 | 0.0 | 0.0 | 0.00 | 0.00 | 0.00 | 74 | 1023.8 |
| 20260906044602 | 60 | 0 | 0.0 | 0.0 | 0.00 | 0.00 | 0.00 | 72 | 1023.8 |
| 20260906043052 | 60 | 0 | 0.0 | 0.0 | 0.00 | 0.00 | 0.00 | 72 | 1023.8 |
| 20260906041552 | 60 | 0 | 0.0 | 1.0 | 0.00 | 0.00 | 0.00 | 72 | 1023.7 |
| 20260906040105 | 60 | 0 | 0.0 | 1.0 | 0.00 | 0.00 | 0.00 | 71 | 1023.7 |
| 20260906034553 | 59 | 0 | 0.0 | 1.0 | 0.00 | 0.00 | 0.00 | 75 | 1023.5 |
| 20260906033051 | 60 | 0 | 0.0 | 1.0 | 0.00 | 0.00 | 0.00 | 71 | 1023.4 |
| 20260906031601 | 60 | 0 | 0.0 | 1.0 | 0.00 | 0.00 | 0.00 | 72 | 1023.3 |
| 20260906024558 | 60 | 0 | 0.0 | 1.0 | 0.00 | 0.00 | 0.00 | 74 | 1023.5 |
| 20260906023054 | 61 | 0 | 0.0 | 1.0 | 0.00 | 0.00 | 0.00 | 72 | 1023.6 |
| 20260906021603 | 60 | 0 | 0.0 | 1.0 | 0.00 | 0.00 | 0.00 | 74 | 1023.5 |
| 20260906020059 | 61 | 0 | 0.0 | 3.0 | 0.00 | 0.00 | 0.00 | 74 | 1023.3 |
| 20260906014633 | 61 | 0 | 0.0 | 2.0 | 0.00 | 0.00 | 0.00 | 75 | 1023.5 |
| 20260906013101 | 61 | 0 | 0.0 | 1.0 | 0.00 | 0.00 | 0.00 | 74 | 1023.6 |
| 20260906011603 | 62 | 0 | 0.0 | 3.0 | 0.00 | 0.00 | 0.00 | 73 | 1023.7 |
| 20260906010055 | 62 | 0 | 0.0 | 2.0 | 0.00 | 0.00 | 0.00 | 74 | 1023.7 |
| 20260906004613 | 62 | 0 | 0.0 | 2.0 | 0.00 | 0.00 | 0.00 | 74 | 1023.7 |
| 20260906003112 | 62 | 13 | 0.0 | 1.0 | 0.00 | 0.00 | 0.00 | 73 | 1023.8 |
| 20260906001555 | 63 | 0 | 0.0 | 2.0 | 0.00 | 0.00 | 0.00 | 73 | 1024.0 |
| 20260906000053 | 63 | 0 | 0.0 | 1.0 | 0.00 | 0.00 | 0.00 | 73 | 1023.9 |
| 20260905234610 | 63 | 0 | 0.0 | 3.0 | 0.00 | 0.00 | 0.00 | 73 | 1024.0 |
| 20260905233053 | 63 | 0 | 0.0 | 1.0 | 0.00 | 0.00 | 0.00 | 74 | 1024.1 |
| 20260905231600 | 62 | 12 | 0.0 | 0.0 | 0.00 | 0.00 | 0.00 | 75 | 1024.0 |
| 20260905230109 | 63 | 0 | 0.0 | 1.0 | 0.00 | 0.00 | 0.00 | 75 | 1023.8 |
| 20260905224604 | 64 | 0 | 0.0 | 1.0 | 0.00 | 0.00 | 0.00 | 73 | 1023.9 |
| 20260905223051 | 64 | 0 | 0.0 | 1.0 | 0.00 | 0.00 | 0.00 | 72 | 1023.9 |
| 20260905221611 | 65 | 0 | 0.0 | 2.0 | 0.00 | 0.00 | 0.00 | 69 | 1023.9 |
| 20260905220053 | 66 | 0 | 0.0 | 1.0 | 0.00 | 0.00 | 0.00 | 68 | 1023.7 |
| 20260905214603 | 66 | 0 | 0.0 | 1.0 | 0.00 | 0.00 | 0.00 | 70 | 1023.8 |
| 20260905213106 | 67 | 0 | 0.0 | 1.0 | 0.00 | 0.00 | 0.00 | 67 | 1023.8 |
| 20260905211605 | 66 | 0 | 0.0 | 3.0 | 0.00 | 0.00 | 0.00 | 71 | 1023.8 |
| 20260905204557 | 66 | 0 | 0.0 | 1.0 | 0.00 | 0.00 | 0.00 | 73 | 1023.7 |
| 20260905203056 | 66 | 0 | 0.0 | 1.0 | 0.00 | 0.00 | 0.00 | 72 | 1023.7 |
| 20260905201610 | 67 | 0 | 0.0 | 3.0 | 0.00 | 0.00 | 0.00 | 71 | 1023.7 |
| 20260905200054 | 67 | 0 | 0.0 | 1.0 | 0.00 | 0.00 | 0.00 | 70 | 1023.8 |
| 20260905194555 | 69 | 0 | 0.0 | 1.0 | 0.00 | 0.00 | 0.00 | 68 | 1023.7 |
| 20260905193110 | 70 | 0 | 0.0 | 1.0 | 0.00 | 0.00 | 0.00 | 66 | 1023.5 |
| 20260905191551 | 72 | 0 | 0.0 | 2.0 | 0.00 | 0.00 | 0.00 | 62 | 1023.4 |
| 20260905190053 | 73 | 0 | 0.0 | 2.0 | 0.00 | 0.00 | 0.00 | 59 | 1023.1 |
| 20260905184603 | 73 | 31 | 0.0 | 5.0 | 0.00 | 0.00 | 0.00 | 62 | 1023.0 |
| 20260905183108 | 72 | 0 | 0.0 | 2.0 | 0.00 | 0.00 | 0.00 | 67 | 1023.0 |
| 20260905181610 | 74 | 0 | 0.0 | 0.0 | 0.00 | 0.00 | 0.00 | 64 | 1023.0 |
| 20260905180106 | 75 | 0 | 0.0 | 0.0 | 0.00 | 0.00 | 0.00 | 64 | 1022.9 |
| 20260905174607 | 76 | 0 | 0.0 | 0.0 | 0.00 | 0.00 | 0.00 | 61 | 1022.8 |
| 20260905173103 | 78 | 0 | 0.0 | 1.0 | 0.00 | 0.00 | 0.00 | 57 | 1022.7 |
| 20260905171558 | 81 | 0 | 0.0 | 2.0 | 0.00 | 0.00 | 0.00 | 52 | 1022.5 |
| 20260905170055 | 82 | 0 | 0.0 | 5.0 | 0.00 | 0.00 | 0.00 | 50 | 1022.5 |
| 20260905164601 | 83 | 297 | 0.0 | 7.0 | 0.00 | 0.00 | 0.00 | 47 | 1022.4 |
| 20260905163058 | 85 | 313 | 0.0 | 7.0 | 0.00 | 0.00 | 0.00 | 45 | 1022.3 |
| 20260905161603 | 86 | 352 | 2.0 | 8.0 | 0.00 | 0.00 | 0.00 | 43 | 1022.2 |
| 20260905160057 | 87 | 291 | 1.0 | 11.0 | 0.00 | 0.00 | 0.00 | 42 | 1022.3 |
| 20260905154617 | 88 | 292 | 2.0 | 11.0 | 0.00 | 0.00 | 0.00 | 39 | 1022.3 |
| 20260905153056 | 88 | 287 | 3.0 | 8.0 | 0.00 | 0.00 | 0.00 | 38 | 1022.3 |
| 20260905151600 | 90 | 352 | 1.0 | 8.0 | 0.00 | 0.00 | 0.00 | 37 | 1022.2 |
| 20260905150051 | 90 | 331 | 1.0 | 8.0 | 0.00 | 0.00 | 0.00 | 35 | 1022.1 |
| 20260905144559 | 91 | 242 | 0.0 | 5.0 | 0.00 | 0.00 | 0.00 | 33 | 1022.2 |
| 20260905143054 | 91 | 255 | 2.0 | 8.0 | 0.00 | 0.00 | 0.00 | 30 | 1022.3 |
| 20260905141600 | 91 | 240 | 2.0 | 8.0 | 0.00 | 0.00 | 0.00 | 28 | 1022.4 |
| 20260905140059 | 91 | 0 | 1.0 | 9.0 | 0.00 | 0.00 | 0.00 | 30 | 1022.5 |
| 20260905134554 | 91 | 309 | 2.0 | 9.0 | 0.00 | 0.00 | 0.00 | 28 | 1022.6 |
| 20260905133100 | 92 | 243 | 2.0 | 8.0 | 0.00 | 0.00 | 0.00 | 27 | 1022.7 |
| 20260905131607 | 91 | 248 | 2.0 | 8.0 | 0.00 | 0.00 | 0.00 | 28 | 1022.7 |
| 20260905130054 | 92 | 327 | 2.0 | 10.0 | 0.00 | 0.00 | 0.00 | 30 | 1022.6 |
| 20260905124551 | 91 | 250 | 3.0 | 8.0 | 0.00 | 0.00 | 0.00 | 30 | 1022.9 |
| 20260905123102 | 91 | 0 | 2.0 | 8.0 | 0.00 | 0.00 | 0.00 | 30 | 1022.9 |
| 20260905121558 | 92 | 0 | 1.0 | 5.0 | 0.00 | 0.00 | 0.00 | 30 | 1023.2 |
| 20260905120056 | 91 | 128 | 0.0 | 6.0 | 0.00 | 0.00 | 0.00 | 38 | 1023.2 |
| 20260905114600 | 92 | 86 | 0.0 | 5.0 | 0.00 | 0.00 | 0.00 | 38 | 1023.3 |
| 20260905113056 | 91 | 0 | 0.0 | 8.0 | 0.00 | 0.00 | 0.00 | 35 | 1023.4 |
| 20260905111604 | 90 | 263 | 0.0 | 4.0 | 0.00 | 0.00 | 0.00 | 35 | 1023.5 |
| 20260905110058 | 90 | 0 | 1.0 | 4.0 | 0.00 | 0.00 | 0.00 | 38 | 1023.4 |
| 20260905104603 | 90 | 0 | 0.0 | 7.0 | 0.00 | 0.00 | 0.00 | 38 | 1023.5 |
| 20260905103056 | 89 | 0 | 0.0 | 3.0 | 0.00 | 0.00 | 0.00 | 40 | 1023.6 |
| 20260905101557 | 88 | 0 | 1.0 | 5.0 | 0.00 | 0.00 | 0.00 | 41 | 1023.8 |
| 20260905100058 | 88 | 0 | 1.0 | 5.0 | 0.00 | 0.00 | 0.00 | 43 | 1023.7 |
| 20260905094601 | 87 | 267 | 0.0 | 5.0 | 0.00 | 0.00 | 0.00 | 42 | 1023.7 |
| 20260905093055 | 87 | 263 | 0.0 | 4.0 | 0.00 | 0.00 | 0.00 | 44 | 1023.8 |
| 20260905091608 | 85 | 0 | 0.0 | 4.0 | 0.00 | 0.00 | 0.00 | 45 | 1023.7 |
| 20260905090057 | 84 | 0 | 0.0 | 3.0 | 0.00 | 0.00 | 0.00 | 46 | 1023.8 |
| 20260905084609 | 83 | 259 | 1.0 | 4.0 | 0.00 | 0.00 | 0.00 | 47 | 1023.9 |
| 20260905083053 | 83 | 0 | 1.0 | 3.0 | 0.00 | 0.00 | 0.00 | 45 | 1023.7 |
| 20260905081600 | 83 | 0 | 0.0 | 3.0 | 0.00 | 0.00 | 0.00 | 45 | 1023.7 |
| 20260905080107 | 82 | 0 | 0.0 | 3.0 | 0.00 | 0.00 | 0.00 | 47 | 1023.6 |
| 20260905074607 | 82 | 134 | 0.0 | 1.0 | 0.00 | 0.00 | 0.00 | 48 | 1023.6 |
| 20260905073102 | 80 | 0 | 0.0 | 1.0 | 0.00 | 0.00 | 0.00 | 47 | 1023.5 |
| 20260905071607 | 79 | 0 | 0.0 | 0.0 | 0.00 | 0.00 | 0.00 | 48 | 1023.6 |
| 20260905070111 | 78 | 250 | 0.0 | 2.0 | 0.00 | 0.00 | 0.00 | 52 | 1023.3 |